Huvudsida
METAR-TAF:

METAR-TAF

Flygplatser :

Nouakchotts flygplats

Nouakchott, Mauretanien

latitud: 18-18-36N, longitud: 015-58-11W, höjd: 3 m

Aktuellt väderrapport

Denna rapport gjordes för 43 minuter sedan, klockan 12:00 UTC
Vind 17 kt från ost
Temperatur 33°C
Fuktighet 15%
Tryck 1013 hPa
Sikt: 6000 m

METAR: GQNO 251200Z 09017KT 6000 NSC 33/03 Q1013 BECMG 4000 BLSA

Tid: 12:43 (12:43 UTC)

Väderprognos

Denna rapport gjordes för 1 timme och 43 minuter sedan, klockan 11:00 UTC
Prognos gäller från 25 kl. 12 UTC till 26 kl. 18 UTC
Vind 14 kt från ost/nordost
Sikt: 8000 m
Blir
från 25 kl. 14 UTC till 25 kl. 16 UTC
Vind 14 kt från nord
Blir
från 26 kl. 09 UTC till 26 kl. 11 UTC
Vind 12 kt från ost/nordost
Blir
från 26 kl. 13 UTC till 26 kl. 15 UTC
Vind 12 kt från nord/nordväst

TAF: GQNO 251100Z 2512/2618 06014KT 8000 NSC BECMG 2514/2516 35014KT BECMG 2609/2611 06012KT BECMG 2613/2615 33012KT

Aktuella väderrapporter och prognoser från 4000 flygplatser (METAR- och TAF-rapporter).

De tillgängliga stationerna syns som gula och röda prickar på kartan.

För musen över prickarna för att se namnen på stationerna.

Klicka sedan för att få väderrapporter och prognoser.

För att ändra kartan: Klicka på de gröna knapparna med ett svart kors på för att zooma in; den gröna knappen med ett streck på för att zooma ut; eller på de gröna pilarna för angränsande kartor.


METAR-TAF: